createdAt,value
2018-05-06T00:00:24.940Z,33.70
2018-05-06T00:02:53.374Z,30.73
2018-05-06T00:05:21.031Z,31.40
2018-05-06T00:07:48.694Z,30.67
2018-05-06T00:10:16.376Z,29.60
2018-05-06T00:12:44.019Z,30.47
2018-05-06T00:15:11.726Z,35.07
2018-05-06T00:17:39.399Z,40.70
2018-05-06T00:20:07.086Z,30.60
2018-05-06T00:22:35.535Z,32.23
2018-05-06T00:25:03.975Z,33.30
2018-05-06T00:27:31.631Z,34.37
2018-05-06T00:29:59.335Z,38.03
2018-05-06T00:32:27.773Z,28.63
2018-05-06T00:34:55.403Z,32.23
2018-05-06T00:37:23.084Z,31.03
2018-05-06T00:39:50.775Z,34.73
2018-05-06T00:42:18.444Z,36.43
2018-05-06T00:44:46.890Z,31.30
2018-05-06T00:47:14.563Z,30.73
2018-05-06T00:49:42.222Z,34.30
2018-05-06T00:52:09.891Z,35.40
2018-05-06T00:54:44.434Z,36.60
2018-05-06T00:57:12.129Z,33.93
2018-05-06T00:59:39.805Z,32.40
2018-05-06T01:02:07.475Z,35.23
2018-05-06T01:04:35.190Z,36.30
2018-05-06T01:07:02.899Z,34.13
2018-05-06T01:09:30.574Z,31.20
2018-05-06T01:11:58.235Z,34.83
2018-05-06T01:14:25.931Z,37.77
2018-05-06T01:16:53.572Z,33.23
2018-05-06T01:19:22.076Z,46.60
2018-05-06T01:21:49.758Z,40.43
2018-05-06T01:24:17.414Z,35.20
2018-05-06T01:26:45.089Z,39.47
2018-05-06T01:29:12.767Z,45.50
2018-05-06T01:31:40.444Z,36.30
2018-05-06T01:34:08.119Z,35.10
2018-05-06T01:36:36.577Z,32.50
2018-05-06T01:39:04.292Z,35.50
2018-05-06T01:41:31.946Z,35.13
2018-05-06T01:43:59.631Z,35.73
2018-05-06T01:46:27.271Z,40.70
2018-05-06T01:48:54.923Z,38.10
2018-05-06T01:51:23.365Z,41.27
2018-05-06T01:53:51.782Z,37.10
2018-05-06T01:56:19.450Z,41.23
2018-05-06T01:58:47.142Z,41.13
2018-05-06T02:01:14.809Z,41.50
2018-05-06T02:03:42.545Z,38.87
2018-05-06T02:06:10.247Z,36.20
2018-05-06T02:08:38.691Z,41.37
2018-05-06T02:11:06.368Z,40.97
2018-05-06T02:13:34.035Z,45.60
2018-05-06T02:16:01.686Z,37.87
2018-05-06T02:18:29.361Z,45.83
2018-05-06T02:20:57.039Z,40.70
2018-05-06T02:23:25.474Z,39.83
2018-05-06T02:25:53.136Z,41.47
2018-05-06T02:28:20.818Z,39.93
2018-05-06T02:30:48.464Z,47.33
2018-05-06T02:33:16.169Z,44.00
2018-05-06T02:35:43.835Z,43.60
2018-05-06T02:38:11.482Z,45.87
2018-05-06T02:40:39.920Z,42.47
2018-05-06T02:43:07.585Z,44.37
2018-05-06T02:45:35.242Z,45.37
2018-05-06T02:48:02.911Z,42.80
2018-05-06T02:50:30.599Z,47.77
2018-05-06T02:52:58.241Z,41.73
2018-05-06T02:55:25.952Z,44.50
2018-05-06T02:57:53.639Z,41.70
2018-05-06T03:00:21.296Z,45.90
2018-05-06T03:02:48.971Z,53.60
2018-05-06T03:05:16.664Z,40.57
2018-05-06T03:07:45.095Z,45.20
2018-05-06T03:10:12.760Z,42.80
2018-05-06T03:12:40.504Z,48.73
2018-05-06T03:15:08.153Z,56.37
2018-05-06T03:17:35.834Z,45.30
2018-05-06T03:20:03.522Z,51.43
2018-05-06T03:22:31.179Z,57.63
2018-05-06T03:24:58.873Z,50.93
2018-05-06T03:27:27.299Z,51.23
2018-05-06T03:29:54.956Z,51.90
2018-05-06T03:32:22.628Z,54.07
2018-05-06T03:34:50.304Z,51.70
2018-05-06T03:37:17.994Z,50.13
2018-05-06T03:39:45.699Z,52.47
2018-05-06T03:42:13.385Z,52.57
2018-05-06T03:44:41.025Z,48.17
2018-05-06T03:47:08.711Z,50.73
2018-05-06T03:49:36.364Z,52.00
2018-05-06T03:52:04.044Z,50.00
2018-05-06T03:54:32.482Z,50.90
2018-05-06T03:57:11.905Z,51.60
2018-05-06T03:59:51.518Z,45.73
2018-05-06T04:05:16.582Z,54.10
2018-05-06T04:07:44.280Z,46.90
2018-05-06T04:10:12.695Z,46.67
2018-05-06T04:12:40.390Z,46.90
2018-05-06T04:15:08.062Z,44.80
2018-05-06T04:17:35.713Z,47.53
2018-05-06T04:20:03.490Z,44.80
2018-05-06T04:22:31.159Z,46.43
2018-05-06T04:24:59.573Z,38.43
2018-05-06T04:27:27.242Z,43.30
2018-05-06T04:29:54.919Z,44.30
2018-05-06T04:32:22.597Z,38.73
2018-05-06T04:34:50.283Z,40.27
2018-05-06T04:37:17.943Z,42.97
2018-05-06T04:39:46.375Z,37.27
2018-05-06T04:42:14.054Z,36.23
2018-05-06T04:44:41.713Z,37.73
2018-05-06T04:47:09.419Z,37.67
2018-05-06T04:49:37.091Z,38.40
2018-05-06T04:52:04.768Z,41.03
2018-05-06T04:54:32.425Z,29.83
2018-05-06T04:57:00.095Z,31.60
2018-05-06T04:59:27.776Z,31.33
2018-05-06T05:01:55.427Z,33.67
2018-05-06T05:04:23.100Z,34.70
2018-05-06T05:06:50.788Z,29.73
2018-05-06T05:09:19.206Z,28.40
2018-05-06T05:11:46.885Z,29.23
2018-05-06T05:14:14.542Z,32.30
2018-05-06T05:16:42.183Z,28.40
2018-05-06T05:19:10.030Z,30.60
2018-05-06T05:21:38.532Z,26.60
2018-05-06T05:24:06.179Z,26.03
2018-05-06T05:26:34.620Z,23.03
2018-05-06T05:29:02.293Z,22.93
2018-05-06T05:31:30.727Z,24.40
2018-05-06T05:33:58.381Z,25.50
2018-05-06T05:36:26.043Z,21.33
2018-05-06T05:38:53.675Z,25.77
2018-05-06T05:41:21.342Z,21.73
2018-05-06T05:43:49.007Z,20.30
2018-05-06T05:46:16.655Z,22.10
2018-05-06T05:48:44.342Z,24.37
2018-05-06T05:51:12.013Z,21.33
2018-05-06T05:53:39.655Z,18.07
2018-05-06T05:56:07.321Z,17.73
2018-05-06T05:58:34.992Z,20.83
2018-05-06T06:01:02.646Z,24.17
2018-05-06T06:03:30.322Z,18.43
2018-05-06T06:05:57.983Z,20.80
2018-05-06T06:08:25.642Z,14.67
2018-05-06T06:10:53.315Z,24.53
2018-05-06T06:13:20.996Z,20.67
2018-05-06T06:15:49.412Z,20.13
2018-05-06T06:18:17.072Z,16.17
2018-05-06T06:20:44.750Z,16.23
2018-05-06T06:23:12.412Z,24.47
2018-05-06T06:25:40.105Z,18.27
2018-05-06T06:28:08.548Z,17.50
2018-05-06T06:30:36.197Z,17.33
2018-05-06T06:33:03.922Z,18.87
2018-05-06T06:35:31.592Z,16.70
2018-05-06T06:37:59.233Z,21.00
2018-05-06T06:40:27.667Z,15.20
2018-05-06T06:42:55.356Z,18.30
2018-05-06T06:45:23.058Z,22.13
2018-05-06T06:47:50.771Z,18.37
2018-05-06T06:50:18.443Z,19.60
2018-05-06T06:52:46.847Z,18.60
2018-05-06T06:55:14.540Z,20.40
2018-05-06T07:42:52.559Z,10.37
2018-05-06T07:45:21.019Z,14.50
2018-05-06T07:47:48.655Z,11.30
2018-05-06T07:50:16.323Z,11.43
2018-05-06T07:52:44.004Z,10.90
2018-05-06T07:55:11.653Z,14.77
2018-05-06T07:57:39.355Z,13.87
2018-05-06T08:00:07.818Z,10.97
2018-05-06T08:02:36.233Z,9.83
2018-05-06T08:05:03.955Z,11.50
2018-05-06T08:07:31.620Z,13.70
2018-05-06T08:10:00.022Z,10.23
2018-05-06T08:12:27.711Z,9.37
2018-05-06T08:14:55.385Z,9.27
2018-05-06T08:17:23.016Z,8.07
2018-05-06T08:19:50.706Z,14.97
2018-05-06T08:22:18.371Z,10.20
2018-05-06T08:24:46.019Z,10.70
2018-05-06T08:27:13.678Z,8.57
2018-05-06T08:29:41.336Z,11.00
2018-05-06T08:32:09.093Z,10.40
2018-05-06T08:34:37.713Z,13.10
2018-05-06T08:37:05.387Z,11.47
2018-05-06T08:39:33.031Z,9.07
2018-05-06T08:42:00.696Z,10.73
2018-05-06T08:44:28.362Z,14.37
2018-05-06T08:46:56.780Z,6.80
2018-05-06T08:49:24.446Z,10.50
2018-05-06T08:51:52.120Z,19.97
2018-05-06T08:54:19.991Z,7.67
2018-05-06T08:56:47.746Z,10.83
2018-05-06T08:59:15.444Z,12.20
2018-05-06T09:01:43.075Z,8.17
2018-05-06T09:04:10.737Z,8.70
2018-05-06T09:06:38.414Z,11.60
2018-05-06T09:09:06.102Z,9.03
2018-05-06T09:11:34.519Z,11.27
2018-05-06T09:14:02.163Z,10.23
2018-05-06T09:16:29.792Z,13.10
2018-05-06T09:18:58.224Z,8.10
2018-05-06T09:21:25.890Z,8.50
2018-05-06T09:23:53.510Z,7.60
2018-05-06T09:26:21.180Z,9.13
2018-05-06T09:28:48.827Z,7.10
2018-05-06T09:31:16.491Z,17.87
2018-05-06T09:33:44.323Z,9.23
2018-05-06T09:36:11.991Z,8.50
2018-05-06T09:38:40.378Z,12.10
2018-05-06T09:41:08.835Z,8.67
2018-05-06T09:43:36.503Z,5.90
2018-05-06T09:46:04.297Z,12.20
2018-05-06T09:48:31.967Z,9.33
2018-05-06T09:50:59.628Z,6.50
2018-05-06T09:53:27.254Z,10.33
2018-05-06T09:55:55.689Z,5.37
2018-05-06T09:58:23.347Z,5.07
2018-05-06T10:00:50.961Z,8.43
2018-05-06T10:03:19.421Z,13.80
2018-05-06T10:05:47.087Z,5.50
2018-05-06T10:08:15.524Z,7.53
2018-05-06T10:10:43.305Z,5.40
2018-05-06T10:13:10.950Z,5.93
2018-05-06T10:15:38.623Z,8.10
2018-05-06T10:18:06.326Z,4.27
2018-05-06T10:20:34.754Z,16.80
2018-05-06T10:23:02.412Z,4.10
2018-05-06T10:25:30.580Z,7.03
2018-05-06T10:27:58.314Z,7.60
2018-05-06T10:30:26.027Z,5.63
2018-05-06T10:32:53.698Z,8.17
2018-05-06T10:35:21.354Z,7.70
2018-05-06T10:37:48.991Z,4.10
2018-05-06T10:40:16.647Z,7.03
2018-05-06T10:42:44.362Z,4.43
2018-05-06T10:45:12.027Z,5.90
2018-05-06T10:47:39.698Z,15.10
2018-05-06T10:50:07.375Z,17.87
2018-05-06T10:52:35.039Z,8.37
2018-05-06T10:55:02.733Z,4.10
2018-05-06T10:57:30.407Z,4.03
2018-05-06T10:59:58.031Z,4.20
2018-05-06T11:02:25.686Z,5.40
2018-05-06T11:04:53.345Z,8.73
2018-05-06T11:07:20.968Z,5.10
2018-05-06T11:09:48.631Z,16.50
2018-05-06T11:12:16.345Z,6.93
2018-05-06T11:14:43.969Z,6.00
2018-05-06T11:17:11.628Z,8.10
2018-05-06T11:19:39.339Z,6.23
2018-05-06T11:22:06.946Z,9.13
2018-05-06T11:24:34.595Z,7.20
2018-05-06T11:27:02.290Z,6.30
2018-05-06T11:29:29.912Z,4.90
2018-05-06T11:31:57.643Z,8.03
2018-05-06T11:34:25.318Z,4.77
2018-05-06T11:36:53.724Z,5.67
2018-05-06T11:39:21.391Z,7.10
2018-05-06T11:41:49.071Z,5.77
2018-05-06T11:44:16.698Z,7.30
2018-05-06T11:46:44.377Z,5.67
2018-05-06T11:49:12.035Z,4.27
2018-05-06T11:51:39.642Z,7.80
2018-05-06T11:54:08.102Z,11.43
2018-05-06T11:56:35.763Z,11.00
2018-05-06T11:59:03.419Z,4.90
2018-05-06T12:01:31.167Z,7.27
2018-05-06T12:03:58.830Z,5.23
2018-05-06T12:06:26.459Z,5.50
2018-05-06T12:08:54.156Z,8.50
2018-05-06T12:11:21.836Z,4.97
2018-05-06T12:13:49.468Z,8.60
2018-05-06T12:16:17.135Z,5.63
2018-05-06T12:18:44.869Z,13.37
2018-05-06T12:21:14.637Z,4.00
2018-05-06T12:23:43.320Z,9.40
2018-05-06T12:26:15.049Z,6.07
2018-05-06T12:28:46.516Z,4.47
2018-05-06T12:31:16.430Z,13.83
2018-05-06T12:33:46.664Z,6.97
2018-05-06T12:36:14.547Z,6.77
2018-05-06T12:38:44.804Z,4.60
2018-05-06T12:41:15.460Z,6.70
2018-05-06T12:43:44.696Z,10.70
2018-05-06T12:46:15.441Z,4.70
2018-05-06T12:48:48.081Z,20.73
2018-05-06T12:51:17.616Z,5.97
2018-05-06T12:53:49.544Z,5.37
2018-05-06T12:56:17.598Z,7.03
2018-05-06T12:58:45.790Z,3.47
2018-05-06T13:01:14.903Z,7.07
2018-05-06T13:03:43.459Z,4.27
2018-05-06T13:06:14.102Z,7.03
2018-05-06T13:08:43.106Z,11.03
2018-05-06T13:11:13.259Z,6.00
2018-05-06T13:13:42.195Z,3.73
2018-05-06T13:16:13.460Z,5.43
2018-05-06T13:18:45.896Z,7.90
2018-05-06T13:21:14.774Z,3.97
2018-05-06T13:23:53.075Z,4.93
2018-05-06T13:29:16.096Z,5.70
2018-05-06T13:31:46.941Z,4.70
2018-05-06T13:34:19.120Z,7.30
2018-05-06T13:36:50.272Z,6.00
2018-05-06T13:39:23.125Z,6.97
2018-05-06T13:41:51.912Z,6.30
2018-05-06T13:44:20.088Z,4.40
2018-05-06T13:46:50.943Z,7.20
2018-05-06T13:49:20.659Z,6.70
2018-05-06T13:51:53.118Z,8.53
2018-05-06T13:54:21.027Z,9.10
2018-05-06T13:56:48.738Z,12.73
2018-05-06T13:59:16.480Z,6.00
2018-05-06T14:01:46.362Z,4.03
2018-05-06T14:04:15.742Z,5.83
2018-05-06T14:06:45.268Z,5.83
2018-05-06T14:09:14.687Z,10.03
2018-05-06T14:11:46.121Z,4.40
2018-05-06T14:14:14.299Z,6.40
2018-05-06T14:16:44.363Z,6.43
2018-05-06T14:19:13.615Z,5.23
2018-05-06T14:21:45.933Z,5.90
2018-05-06T14:24:18.384Z,5.10
2018-05-06T14:26:54.347Z,5.80
2018-05-06T14:29:24.716Z,4.93
2018-05-06T14:31:52.492Z,8.40
2018-05-06T14:34:23.111Z,6.10
2018-05-06T14:36:50.786Z,7.87
2018-05-06T14:39:18.463Z,7.43
2018-05-06T14:41:46.849Z,3.93
2018-05-06T14:44:14.512Z,4.33
2018-05-06T14:49:43.967Z,3.93
2018-05-06T14:52:11.688Z,7.33
2018-05-06T14:54:39.407Z,5.70
2018-05-06T14:57:07.151Z,6.67
2018-05-06T14:59:34.809Z,5.93
2018-05-06T15:02:02.430Z,7.13
2018-05-06T15:04:30.104Z,6.20
2018-05-06T15:06:57.843Z,4.23
2018-05-06T15:09:25.585Z,9.77
2018-05-06T15:11:53.208Z,10.13
2018-05-06T15:14:32.794Z,5.17
2018-05-06T15:17:01.279Z,6.30
2018-05-06T15:19:28.936Z,5.57
2018-05-06T15:21:57.371Z,2.97
2018-05-06T15:24:25.031Z,2.77
2018-05-06T15:26:52.753Z,3.43
2018-05-06T15:29:20.418Z,5.10
2018-05-06T15:31:48.119Z,2.47
2018-05-06T15:34:15.854Z,5.27
2018-05-06T15:36:43.561Z,7.17
2018-05-06T15:39:11.263Z,5.10
2018-05-06T15:41:39.534Z,3.80
2018-05-06T15:44:07.180Z,5.03
2018-05-06T15:46:35.638Z,3.47
2018-05-06T15:49:03.339Z,4.23
2018-05-06T15:51:31.031Z,7.43
2018-05-06T15:53:58.756Z,3.50
2018-05-06T15:56:26.426Z,8.53
2018-05-06T15:58:54.119Z,6.90
2018-05-06T16:01:21.787Z,2.67
2018-05-06T16:04:01.240Z,4.20
2018-05-06T16:06:29.019Z,3.97
2018-05-06T16:08:56.632Z,2.77
2018-05-06T16:11:24.289Z,2.30
2018-05-06T16:13:51.949Z,2.63
2018-05-06T16:16:19.615Z,2.60
2018-05-06T16:18:47.234Z,7.40
2018-05-06T16:21:14.937Z,3.33
2018-05-06T16:23:42.572Z,2.23
2018-05-06T16:26:10.190Z,3.73
2018-05-06T16:28:37.861Z,4.30
2018-05-06T16:31:06.291Z,3.70
2018-05-06T16:33:33.923Z,2.80
2018-05-06T16:36:01.611Z,2.97
2018-05-06T16:38:29.270Z,4.40
2018-05-06T16:40:56.898Z,2.10
2018-05-06T16:43:24.553Z,7.60
2018-05-06T16:45:52.275Z,4.50
2018-05-06T16:48:19.878Z,4.13
2018-05-06T16:50:48.309Z,3.50
2018-05-06T16:53:15.954Z,4.27
2018-05-06T16:55:43.587Z,1.50
2018-05-06T16:58:11.280Z,8.43
2018-05-06T17:00:38.962Z,3.47
2018-05-06T17:03:06.618Z,5.27
2018-05-06T17:05:34.366Z,6.20
2018-05-06T17:08:02.080Z,5.87
2018-05-06T17:10:29.706Z,2.90
2018-05-06T17:12:57.367Z,1.80
2018-05-06T17:15:25.077Z,7.30
2018-05-06T17:17:52.732Z,2.20
2018-05-06T17:20:20.391Z,4.27
2018-05-06T17:22:48.076Z,2.20
2018-05-06T17:25:15.770Z,3.20
2018-05-06T17:27:43.510Z,7.87
2018-05-06T17:30:11.183Z,3.93
2018-05-06T17:32:38.836Z,2.30
2018-05-06T17:35:06.503Z,1.60
2018-05-06T17:37:34.180Z,3.50
2018-05-06T17:40:02.570Z,2.33
2018-05-06T17:42:31.003Z,1.67
2018-05-06T17:44:58.707Z,5.87
2018-05-06T17:47:26.391Z,3.97
2018-05-06T17:49:54.094Z,3.60
2018-05-06T17:52:21.789Z,4.53
2018-05-06T17:54:50.234Z,3.57
2018-05-06T17:57:17.971Z,2.40
2018-05-06T17:59:45.659Z,2.03
2018-05-06T18:02:13.331Z,2.10
2018-05-06T18:04:40.986Z,2.70
2018-05-06T18:07:08.692Z,3.20
2018-05-06T18:09:36.338Z,3.43
2018-05-06T18:12:04.787Z,2.57
2018-05-06T18:14:32.497Z,4.53
2018-05-06T18:17:00.142Z,5.67
2018-05-06T18:19:27.859Z,1.90
2018-05-06T18:21:55.546Z,4.83
2018-05-06T18:24:23.943Z,3.80
2018-05-06T18:26:51.623Z,3.70
2018-05-06T18:29:19.286Z,2.10
2018-05-06T18:31:46.931Z,1.63
2018-05-06T18:34:14.624Z,2.50
2018-05-06T18:36:42.303Z,3.70
2018-05-06T18:39:09.972Z,1.80
2018-05-06T18:41:37.647Z,2.53
2018-05-06T18:44:05.356Z,2.20
2018-05-06T18:46:33.007Z,6.60
2018-05-06T18:49:00.715Z,5.30
2018-05-06T18:51:28.407Z,9.43
2018-05-06T18:53:56.044Z,2.77
2018-05-06T18:56:24.496Z,5.57
2018-05-06T18:58:52.162Z,2.50
2018-05-06T19:01:19.844Z,5.20
2018-05-06T19:03:48.312Z,7.07
2018-05-06T19:06:15.979Z,4.60
2018-05-06T19:08:43.660Z,7.03
2018-05-06T19:11:12.121Z,7.60
2018-05-06T19:13:40.574Z,4.43
2018-05-06T19:16:08.205Z,5.00
2018-05-06T19:18:35.888Z,5.50
2018-05-06T19:21:03.592Z,2.50
2018-05-06T19:23:32.022Z,3.70
2018-05-06T19:25:59.730Z,6.07
2018-05-06T19:28:28.163Z,4.10
2018-05-06T19:30:55.800Z,4.20
2018-05-06T19:33:23.475Z,2.33
2018-05-06T19:35:51.147Z,2.07
2018-05-06T19:38:18.814Z,7.30
2018-05-06T19:40:46.473Z,6.67
2018-05-06T19:43:15.099Z,6.00
2018-05-06T19:45:43.515Z,4.13
2018-05-06T19:48:11.194Z,5.57
2018-05-06T19:50:38.854Z,5.63
2018-05-06T19:53:06.490Z,4.27
2018-05-06T19:55:34.165Z,3.03
2018-05-06T19:58:01.847Z,6.17
2018-05-06T20:00:29.545Z,8.30
2018-05-06T20:02:57.241Z,5.43
2018-05-06T20:05:24.996Z,6.97
2018-05-06T20:07:53.400Z,3.83
2018-05-06T20:10:21.083Z,4.20
2018-05-06T20:12:48.766Z,9.33
2018-05-06T20:15:16.399Z,3.50
2018-05-06T20:17:44.072Z,3.03
2018-05-06T20:20:12.536Z,7.37
2018-05-06T20:22:40.934Z,2.93
2018-05-06T20:25:09.387Z,5.40
2018-05-06T20:27:37.068Z,7.90
2018-05-06T20:30:05.461Z,4.50
2018-05-06T20:32:33.121Z,2.83
2018-05-06T20:35:00.782Z,5.73
2018-05-06T20:37:28.430Z,3.57
2018-05-06T20:39:56.904Z,9.67
2018-05-06T20:42:25.334Z,7.37
2018-05-06T20:44:52.970Z,3.80
2018-05-06T20:47:20.636Z,3.30
2018-05-06T20:49:48.352Z,3.00
2018-05-06T20:52:16.012Z,4.10
2018-05-06T20:54:43.838Z,8.70
2018-05-06T20:57:11.580Z,5.23
2018-05-06T20:59:39.241Z,4.97
2018-05-06T21:02:06.922Z,3.90
2018-05-06T21:04:34.599Z,5.37
2018-05-06T21:07:02.237Z,7.43
2018-05-06T21:09:29.907Z,7.00
2018-05-06T21:11:57.571Z,6.93
2018-05-06T21:14:25.230Z,4.53
2018-05-06T21:16:52.887Z,3.50
2018-05-06T21:19:20.559Z,2.90
2018-05-06T21:21:48.301Z,2.53
2018-05-06T21:24:16.027Z,2.30
2018-05-06T21:26:43.682Z,4.90
2018-05-06T21:29:12.079Z,2.87
2018-05-06T21:31:39.743Z,6.77
2018-05-06T21:34:07.419Z,4.97
2018-05-06T21:36:35.065Z,4.97
2018-05-06T21:39:02.829Z,2.63
2018-05-06T21:41:30.480Z,3.90
2018-05-06T21:43:58.107Z,5.83
2018-05-06T21:46:26.544Z,2.40
2018-05-06T21:48:54.285Z,5.80
2018-05-06T21:51:21.933Z,7.37
2018-05-06T21:53:49.659Z,3.37
2018-05-06T21:56:17.322Z,4.30
2018-05-06T21:58:44.975Z,7.43
2018-05-06T22:01:21.483Z,5.70
2018-05-06T22:03:49.158Z,2.93
2018-05-06T22:06:16.847Z,6.60
2018-05-06T22:08:44.528Z,2.97
2018-05-06T22:11:12.186Z,7.97
2018-05-06T22:13:39.832Z,3.87
2018-05-06T22:18:41.446Z,3.63
2018-05-06T22:21:09.123Z,4.00
2018-05-06T22:23:37.563Z,5.20
2018-05-06T22:26:05.213Z,7.37
2018-05-06T22:28:32.927Z,6.73
2018-05-06T22:31:00.596Z,4.83
2018-05-06T22:33:29.005Z,5.03
2018-05-06T22:35:57.481Z,6.40
2018-05-06T22:38:25.158Z,3.70
2018-05-06T22:40:52.786Z,4.10
2018-05-06T22:43:20.460Z,6.30
2018-05-06T22:45:48.138Z,6.10
2018-05-06T22:48:16.561Z,3.63
2018-05-06T22:50:44.225Z,2.73
2018-05-06T22:53:11.884Z,3.33
2018-05-06T22:55:39.525Z,6.30
2018-05-06T22:58:07.210Z,5.63
2018-05-06T23:00:34.947Z,4.60
2018-05-06T23:03:02.610Z,5.33
2018-05-06T23:05:30.352Z,4.90
2018-05-06T23:07:57.961Z,4.97
2018-05-06T23:10:25.639Z,3.37
2018-05-06T23:12:53.315Z,10.83
2018-05-06T23:15:21.003Z,6.90
2018-05-06T23:17:49.390Z,3.60
2018-05-06T23:20:17.081Z,6.03
2018-05-06T23:22:44.751Z,5.63
2018-05-06T23:25:12.448Z,2.80
2018-05-06T23:27:40.101Z,7.03
2018-05-06T23:30:07.765Z,2.80
2018-05-06T23:32:35.409Z,3.63
2018-05-06T23:35:03.072Z,3.03
2018-05-06T23:37:30.727Z,7.83
2018-05-06T23:39:58.369Z,3.60
2018-05-06T23:42:26.040Z,4.03
2018-05-06T23:44:53.708Z,6.30
2018-05-06T23:47:21.418Z,5.93
2018-05-06T23:49:49.096Z,3.07
2018-05-06T23:52:16.782Z,3.87
2018-05-06T23:54:44.416Z,5.53
2018-05-06T23:57:12.104Z,3.73
2018-05-06T23:59:39.818Z,4.97
